Time;durP1;ratioP1;P1;durP2;ratioP2;P2;SDS_P1;SDS_P2;PMS_P1;PMS_P2;Temp;Humidity;BMP_temperature;BMP_pressure;BME280_temperature;BME280_humidity;BME280_pressure;Samples;Min_cycle;Max_cycle;Signal;HPM_P1;HPM_P2
2023/04/11 00:07:55;;;;;;;701.35;639.63;;;;;;;21.14;48.55;100451.38;20586405;28;20038;-74
2023/04/11 00:17:57;;;;;;;717.17;654.55;;;;;;;21.10;48.39;100441.09;20585498;28;20134;-75
2023/04/11 00:27:57;;;;;;;734.78;670.83;;;;;;;21.10;48.54;100440.25;20583722;28;22252;-74
2023/04/11 00:38:00;;;;;;;764.50;698.53;;;;;;;21.09;48.74;100428.03;20577389;28;20413;-74
2023/04/11 00:48:01;;;;;;;;;;;;;;;21.08;48.78;100413.19;20582519;28;20708;-74
2023/04/11 00:58:02;;;;;;;723.63;660.60;;;;;;;21.06;48.46;100407.22;20591683;28;20026;-75
2023/04/11 01:08:03;;;;;;;703.95;642.35;;;;;;;21.03;48.84;100410.06;20585858;28;20401;-74
2023/04/11 01:18:04;;;;;;;691.47;630.53;;;;;;;21.03;48.72;100399.53;20581377;28;20106;-74
2023/04/11 01:28:07;;;;;;;692.92;631.95;;;;;;;20.99;48.37;100385.78;20588620;28;20063;-74
2023/04/11 01:38:08;;;;;;;738.60;674.47;;;;;;;20.99;48.63;100367.34;20673896;28;20521;-74
2023/04/11 01:48:08;;;;;;;751.83;686.83;;;;;;;20.97;48.46;100366.66;20673585;28;20049;-74
2023/04/11 01:58:11;;;;;;;718.50;655.90;;;;;;;20.95;48.77;100366.75;20668456;28;20038;-75
2023/04/11 02:08:11;;;;;;;720.13;657.38;;;;;;;20.93;48.84;100362.56;20681162;28;20110;-76
2023/04/11 02:18:12;;;;;;;752.90;687.88;;;;;;;20.93;48.43;100352.88;20672804;28;20420;-75
2023/04/11 02:28:12;;;;;;;719.70;657.05;;;;;;;20.91;49.04;100348.66;20660924;28;20046;-73
2023/04/11 02:38:13;;;;;;;770.80;704.58;;;;;;;20.90;48.75;100339.13;20673374;28;20050;-74
2023/04/11 02:48:13;;;;;;;805.15;736.67;;;;;;;20.89;49.18;100337.44;20671319;28;20436;-74
2023/04/11 02:58:16;;;;;;;736.92;673.15;;;;;;;20.87;48.90;100331.44;20679726;28;20500;-74
2023/04/11 03:08:17;;;;;;;722.97;659.97;;;;;;;20.87;49.23;100331.44;20675406;28;20042;-74
2023/04/11 03:18:17;;;;;;;773.08;706.92;;;;;;;20.87;49.01;100334.06;20671218;28;20283;-74
2023/04/11 03:28:18;;;;;;;722.90;659.95;;;;;;;20.84;49.19;100315.91;20672332;28;20045;-74
2023/04/11 03:38:19;;;;;;;735.55;671.95;;;;;;;20.84;49.29;100332.53;20661433;28;20114;-74
2023/04/11 03:48:25;;;;;;;716.80;654.38;;;;;;;20.82;49.25;100313.38;20662575;28;20050;-74
2023/04/11 03:58:25;;;;;;;734.30;670.67;;;;;;;20.82;49.28;100325.69;20663202;28;20058;-73
2023/04/11 04:08:26;;;;;;;734.83;671.25;;;;;;;20.79;49.56;100326.78;20670541;28;20525;-74
2023/04/11 04:18:26;;;;;;;768.15;702.15;;;;;;;20.82;49.02;100318.63;20613475;28;20129;-73
2023/04/11 04:28:28;;;;;;;723.15;660.38;;;;;;;20.82;49.63;100323.06;20660934;28;20042;-72
2023/04/11 04:38:37;;;;;;;738.20;674.20;;;;;;;20.84;50.15;100315.91;20669785;28;20054;-75
2023/04/11 04:48:37;;;;;;;727.25;664.08;;;;;;;20.89;49.65;100330.38;20652888;28;20101;-73
2023/04/11 04:58:37;;;;;;;746.05;681.42;;;;;;;20.86;49.67;100316.59;20667474;28;20177;-72
2023/04/11 05:08:38;;;;;;;731.47;668.10;;;;;;;20.88;49.81;100309.44;20682490;28;20042;-72
2023/04/11 05:18:39;;;;;;;688.13;627.60;;;;;;;20.87;48.25;100300.72;20669607;28;20043;-71
2023/04/11 05:28:40;;;;;;;703.05;641.50;;;;;;;20.92;48.60;100289.81;20676354;28;20432;-74
2023/04/11 05:38:46;;;;;;;672.15;612.60;;;;;;;20.89;48.96;100287.44;20682788;28;20042;-72
2023/04/11 05:48:47;;;;;;;697.97;636.55;;;;;;;20.97;49.42;100286.81;20679903;28;20049;-73
2023/04/11 05:58:47;;;;;;;687.08;626.33;;;;;;;21.00;49.36;100269.00;20675782;28;20050;-75
2023/04/11 06:08:48;;;;;;;695.92;634.70;;;;;;;20.98;48.56;100257.75;20681742;28;20523;-75
2023/04/11 06:18:49;;;;;;;695.90;634.60;;;;;;;20.97;48.78;100252.59;20667324;28;20375;-74
2023/04/11 06:28:50;;;;;;;743.70;679.08;;;;;;;20.96;48.61;100257.03;20682815;28;20999;-74
2023/04/11 06:38:50;;;;;;;742.28;677.65;;;;;;;21.01;48.36;100243.53;20675951;28;20105;-75
2023/04/11 06:48:50;;;;;;;774.50;707.25;;;;;;;21.06;48.58;100239.56;20670525;28;20041;-75
2023/04/11 06:58:51;;;;;;;795.65;727.08;;;;;;;21.09;49.90;100236.69;20672586;28;20133;-75
2023/04/11 07:08:52;;;;;;;803.47;734.28;;;;;;;21.03;49.54;100231.91;20670537;28;20046;-76
2023/04/11 07:18:54;;;;;;;821.00;750.65;;;;;;;21.02;49.35;100216.22;20648421;28;20046;-75
2023/04/11 07:28:54;;;;;;;798.28;729.55;;;;;;;21.03;49.42;100216.13;20666530;28;20045;-75
2023/04/11 07:38:56;;;;;;;836.10;764.67;;;;;;;21.08;49.24;100208.69;20648942;28;20049;-74
2023/04/11 07:48:56;;;;;;;825.45;754.97;;;;;;;21.09;49.12;100210.38;20654787;28;20518;-75
2023/04/11 07:59:00;;;;;;;858.08;785.60;;;;;;;21.11;48.78;100205.78;20645137;28;20046;-74
2023/04/11 08:09:00;;;;;;;849.63;777.65;;;;;;;21.15;48.84;100184.50;20669034;28;20045;-75
2023/04/11 08:19:01;;;;;;;865.25;791.92;;;;;;;21.16;48.60;100192.25;20669696;28;20493;-74
2023/04/11 08:29:03;;;;;;;916.15;839.97;;;;;;;21.16;48.54;100173.00;20663730;28;20120;-75
2023/04/11 08:39:04;;;;;;;873.43;799.67;;;;;;;21.17;48.73;100150.97;20663333;28;20050;-74
2023/04/11 08:49:04;;;;;;;869.72;796.25;;;;;;;21.21;48.43;100124.25;20681132;28;20643;-75
2023/04/11 08:59:05;;;;;;;877.75;803.70;;;;;;;21.27;48.28;100115.84;20663090;28;20385;-76
2023/04/11 09:09:05;;;;;;;857.15;784.22;;;;;;;21.32;47.83;100093.59;20664471;28;20540;-75
2023/04/11 09:19:22;;;;;;;894.53;819.25;;;;;;;21.36;47.53;100105.53;20655129;28;20061;-73
2023/04/11 09:29:37;;;;;;;859.30;786.28;;;;;;;21.40;46.81;100080.63;20668563;28;20052;-74
2023/04/11 09:39:38;;;;;;;834.25;762.85;;;;;;;21.42;46.67;100052.34;20710768;28;20129;-74
2023/04/11 09:49:40;;;;;;;842.67;770.10;;;;;;;21.46;46.42;100061.69;20722697;28;20052;-73
2023/04/11 09:59:41;;;;;;;843.10;771.13;;;;;;;21.49;46.18;100052.69;20713225;28;20105;-73
2023/04/11 10:09:44;;;;;;;785.15;716.85;;;;;;;21.53;46.06;100036.47;20698549;28;20042;-74
2023/04/11 10:19:44;;;;;;;;;;;;;;;21.56;46.03;100028.34;20713756;28;20474;-73
2023/04/11 10:29:47;;;;;;;810.90;740.88;;;;;;;21.63;46.01;100004.94;20707936;28;19952;-73
2023/04/11 10:39:54;;;;;;;856.75;783.72;;;;;;;21.70;45.33;99985.03;20696261;28;20065;-73
2023/04/11 10:49:55;;;;;;;865.00;792.15;;;;;;;20.77;36.81;99969.00;20683365;28;20687;-72
2023/04/11 10:59:56;;;;;;;842.60;770.95;;;;;;;21.21;38.78;99963.63;20684558;28;23473;-73
2023/04/11 11:09:56;;;;;;;803.72;734.30;;;;;;;21.49;43.74;99934.94;20674161;28;20583;-72
2023/04/11 11:19:57;;;;;;;836.53;764.85;;;;;;;21.66;44.13;99933.53;20694483;28;20050;-74
2023/04/11 11:30:09;;;;;;;786.53;717.78;;;;;;;21.79;43.89;99906.97;20699938;28;20046;-76
2023/04/11 11:40:12;;;;;;;794.63;725.27;;;;;;;21.93;45.18;99897.81;20700339;28;20492;-76
2023/04/11 11:50:31;;;;;;;832.00;759.50;;;;;;;22.05;46.68;99899.38;20689496;28;20112;-76
2023/04/11 12:00:38;;;;;;;772.58;704.47;;;;;;;22.20;48.00;99877.88;20683131;28;20069;-75
2023/04/11 12:10:41;;;;;;;876.15;800.60;;;;;;;22.27;47.28;99886.91;20673001;28;20053;-76
2023/04/11 12:20:41;;;;;;;1092.07;999.90;;;;;;;22.28;47.40;99872.75;20684228;28;20128;-74
2023/04/11 12:30:42;;;;;;;914.13;836.05;;;;;;;22.33;47.28;99873.16;20679342;28;20445;-72
2023/04/11 12:40:42;;;;;;;883.33;806.85;;;;;;;22.47;47.02;99860.56;20669537;28;20374;-75
2023/04/11 12:50:44;;;;;;;1178.90;999.90;;;;;;;22.53;47.42;99852.06;20675257;28;20048;-73
2023/04/11 13:00:45;;;;;;;;;;;;;;;22.52;46.95;99835.44;20679190;28;20050;-72
2023/04/11 13:10:45;;;;;;;965.72;882.78;;;;;;;22.48;47.00;99815.56;20670507;28;19928;-75
2023/04/11 13:20:46;;;;;;;871.80;796.53;;;;;;;22.46;47.00;99800.84;20697245;28;20181;-74
2023/04/11 13:30:46;;;;;;;842.03;768.67;;;;;;;22.42;46.86;99788.91;20711767;28;20065;-75
2023/04/11 13:40:46;;;;;;;845.75;772.08;;;;;;;22.36;46.97;99782.38;20703803;28;20074;-75
2023/04/11 13:50:56;;;;;;;902.67;825.50;;;;;;;22.31;46.88;99759.03;20695765;28;20054;-76
2023/04/11 14:00:57;;;;;;;898.60;821.78;;;;;;;22.29;46.89;99757.53;20705119;28;20055;-75
2023/04/11 14:10:58;;;;;;;886.40;810.50;;;;;;;22.29;46.95;99758.38;20673566;28;20125;-75
2023/04/11 14:21:00;;;;;;;894.85;818.40;;;;;;;22.25;46.76;99751.69;20701745;28;20042;-74
2023/04/11 14:31:01;;;;;;;886.00;810.13;;;;;;;22.21;47.08;99769.59;20690343;28;20041;-74
2023/04/11 14:41:01;;;;;;;901.08;824.25;;;;;;;22.20;46.86;99789.06;20703295;28;20053;-73
2023/04/11 14:51:03;;;;;;;876.00;800.93;;;;;;;22.11;44.32;99804.91;20689238;28;20097;-73
2023/04/11 15:01:04;;;;;;;918.63;840.87;;;;;;;22.11;45.55;99824.16;20682160;28;20808;-75
2023/04/11 15:11:06;;;;;;;941.22;862.25;;;;;;;21.97;45.68;99822.78;20679957;28;20149;-75
2023/04/11 15:21:07;;;;;;;;;;;;;;;21.94;45.31;99840.69;20673921;28;20102;-76
2023/04/11 15:31:11;;;;;;;1047.03;963.22;;;;;;;21.39;40.27;99855.91;20666926;28;20631;-76
2023/04/11 15:41:12;;;;;;;921.40;844.40;;;;;;;21.57;41.48;99857.94;20663470;28;20112;-77
2023/04/11 15:51:13;;;;;;;858.88;785.80;;;;;;;21.63;42.89;99861.81;20668305;28;20409;-73
2023/04/11 16:01:23;;;;;;;843.20;771.15;;;;;;;21.66;43.15;99866.84;20662062;28;20042;-74
2023/04/11 16:11:25;;;;;;;863.90;790.67;;;;;;;21.62;43.83;99868.06;20647819;28;20055;-74
2023/04/11 16:21:26;;;;;;;816.03;745.63;;;;;;;21.67;44.92;99858.78;20659110;28;20057;-75
2023/04/11 16:31:26;;;;;;;788.40;720.05;;;;;;;21.68;45.94;99843.81;20659151;28;20050;-74
2023/04/11 16:41:27;;;;;;;799.10;729.70;;;;;;;21.68;46.38;99842.03;20664527;28;20065;-74
2023/04/11 16:51:28;;;;;;;841.38;769.60;;;;;;;21.70;47.11;99829.56;20655420;28;20037;-74
2023/04/11 17:01:30;;;;;;;811.33;741.10;;;;;;;21.74;47.83;99836.22;20677750;28;20741;-76
2023/04/11 17:11:30;;;;;;;825.10;753.75;;;;;;;21.79;49.47;99835.81;20672305;28;20054;-76
2023/04/11 17:21:31;;;;;;;884.30;809.15;;;;;;;21.81;50.30;99825.94;20675549;28;20073;-74
2023/04/11 17:31:31;;;;;;;836.25;763.85;;;;;;;21.86;51.09;99820.25;20643981;28;20058;-75
2023/04/11 17:41:32;;;;;;;927.95;849.67;;;;;;;21.91;52.05;99818.06;20658679;28;20046;-74
2023/04/11 17:51:32;;;;;;;1020.47;938.03;;;;;;;21.40;41.91;99814.59;20662387;28;20069;-74
2023/04/11 18:01:32;;;;;;;1075.30;989.60;;;;;;;21.67;46.17;99826.34;20678217;28;20048;-74
2023/04/11 18:11:33;;;;;;;1052.43;967.78;;;;;;;21.72;47.74;99814.41;20663842;28;20053;-77
2023/04/11 18:21:33;;;;;;;1180.07;999.90;;;;;;;21.71;48.52;99820.66;20686254;28;20050;-76
2023/04/11 18:31:34;;;;;;;1132.85;999.90;;;;;;;;;;20679657;28;20097;-76
2023/04/11 18:41:34;;;;;;;1075.53;989.72;;;;;;;21.74;48.79;99838.84;20683895;28;20061;-76
2023/04/11 18:51:36;;;;;;;1080.35;994.38;;;;;;;21.74;48.49;99832.75;20697345;28;20456;-76
2023/04/11 19:01:37;;;;;;;1103.23;999.90;;;;;;;;;;20699920;28;20042;-75
2023/04/11 19:11:37;;;;;;;1029.35;945.88;;;;;;;21.76;48.95;99830.78;20697658;28;20180;-75
2023/04/11 19:21:40;;;;;;;1020.13;937.40;;;;;;;21.74;49.08;99836.22;20680444;28;20038;-75
2023/04/11 19:31:41;;;;;;;966.83;886.88;;;;;;;21.74;49.14;99822.22;20692018;28;20165;-75
2023/04/11 19:41:45;;;;;;;959.88;880.22;;;;;;;21.73;48.96;99828.44;20670857;28;20056;-75
2023/04/11 19:51:46;;;;;;;943.85;865.35;;;;;;;21.72;48.76;99830.22;20665801;28;20042;-75
2023/04/11 20:01:47;;;;;;;939.15;860.85;;;;;;;21.71;48.86;99828.56;20662806;28;20493;-76
2023/04/11 20:11:51;;;;;;;941.10;862.92;;;;;;;21.71;48.85;99818.00;20686638;28;20094;-76
2023/04/11 20:21:52;;;;;;;959.35;880.03;;;;;;;21.69;48.97;99816.50;20706618;28;20089;-77
2023/04/11 20:31:53;;;;;;;960.30;881.10;;;;;;;21.68;48.97;99835.91;20675654;28;20062;-76
2023/04/11 20:41:55;;;;;;;932.30;854.67;;;;;;;21.65;48.99;99831.72;20698448;28;20053;-75
2023/04/11 20:51:55;;;;;;;937.80;859.63;;;;;;;21.64;48.93;99814.28;20682439;28;20112;-76
2023/04/11 21:01:56;;;;;;;967.83;888.03;;;;;;;21.63;48.87;99795.97;20687684;28;20046;-76
2023/04/11 21:11:56;;;;;;;1028.30;945.58;;;;;;;21.60;49.25;99789.16;20661752;28;20148;-78
2023/04/11 21:21:57;;;;;;;1033.40;950.40;;;;;;;21.59;49.22;99779.59;20681158;28;20073;-76
2023/04/11 21:31:57;;;;;;;991.88;911.08;;;;;;;21.61;49.87;99788.19;20669970;28;20477;-77
2023/04/11 21:41:59;;;;;;;967.15;887.60;;;;;;;21.62;49.61;99786.38;20662526;28;20560;-78
2023/04/11 21:51:59;;;;;;;1017.25;935.22;;;;;;;21.61;49.65;99787.38;20683134;28;20961;-78
2023/04/11 22:02:01;;;;;;;1027.75;945.25;;;;;;;21.59;49.36;99788.34;20678783;28;20049;-77
2023/04/11 22:12:03;;;;;;;1005.03;923.60;;;;;;;21.57;49.18;99800.00;20674555;28;20493;-77
2023/04/11 22:22:06;;;;;;;971.10;891.53;;;;;;;21.55;49.37;99794.81;20674939;28;20476;-75
2023/04/11 22:32:07;;;;;;;1004.22;922.95;;;;;;;21.51;49.54;99793.41;20670383;28;20054;-76
2023/04/11 22:42:07;;;;;;;1045.47;962.08;;;;;;;21.50;49.48;99777.75;20683469;28;20095;-76
2023/04/11 22:52:12;;;;;;;1038.10;955.00;;;;;;;21.46;49.25;99750.00;20681953;28;20068;-76
2023/04/11 23:02:14;;;;;;;1033.40;950.72;;;;;;;21.44;49.04;99727.25;20688275;28;20046;-76
2023/04/11 23:12:15;;;;;;;1052.50;968.83;;;;;;;21.44;49.20;99729.06;20695564;28;20049;-76
2023/04/11 23:22:15;;;;;;;1079.32;994.17;;;;;;;21.40;49.30;99722.44;20699589;28;20051;-76
2023/04/11 23:32:17;;;;;;;1087.97;999.63;;;;;;;21.39;49.20;99723.41;20689513;28;20106;-77
2023/04/11 23:42:18;;;;;;;1066.30;982.00;;;;;;;21.36;48.94;99727.13;20685365;28;20026;-76
2023/04/11 23:52:19;;;;;;;1118.95;999.90;;;;;;;21.33;48.86;99716.84;20681867;28;20060;-73
